createdAt,value
2018-05-14T00:04:48.685Z,48.30
2018-05-14T00:07:17.148Z,48.20
2018-05-14T00:09:45.597Z,48.20
2018-05-14T00:12:13.329Z,48.20
2018-05-14T00:14:41.026Z,48.20
2018-05-14T00:17:08.726Z,48.20
2018-05-14T00:19:37.214Z,48.30
2018-05-14T00:22:05.660Z,48.30
2018-05-14T00:24:33.362Z,48.30
2018-05-14T00:27:01.058Z,48.30
2018-05-14T00:29:29.172Z,48.20
2018-05-14T00:31:57.016Z,48.30
2018-05-14T00:34:24.734Z,48.20
2018-05-14T00:36:52.425Z,48.20
2018-05-14T00:39:20.110Z,48.20
2018-05-14T00:41:47.909Z,48.20
2018-05-14T00:44:16.381Z,48.30
2018-05-14T00:46:44.068Z,48.20
2018-05-14T00:49:12.599Z,48.20
2018-05-14T00:51:40.292Z,48.20
2018-05-14T00:54:07.991Z,48.20
2018-05-14T00:56:35.718Z,48.20
2018-05-14T00:59:03.436Z,48.20
2018-05-14T01:01:31.305Z,48.30
2018-05-14T01:03:59.754Z,48.30
2018-05-14T01:06:28.448Z,48.30
2018-05-14T01:08:56.883Z,48.30
2018-05-14T01:11:25.498Z,48.20
2018-05-14T01:13:53.962Z,48.30
2018-05-14T01:16:21.657Z,48.30
2018-05-14T01:18:49.365Z,48.30
2018-05-14T01:21:17.068Z,48.30
2018-05-14T01:23:45.614Z,48.30
2018-05-14T01:26:13.315Z,48.30
2018-05-14T01:28:41.780Z,49.00
2018-05-14T01:31:09.473Z,48.30
2018-05-14T01:33:37.173Z,48.30
2018-05-14T01:36:04.869Z,48.40
2018-05-14T01:38:32.576Z,48.30
2018-05-14T01:41:00.381Z,48.30
2018-05-14T01:43:28.090Z,48.30
2018-05-14T01:45:55.850Z,48.30
2018-05-14T01:48:24.328Z,48.40
2018-05-14T01:50:52.806Z,48.30
2018-05-14T01:53:20.647Z,48.30
2018-05-14T01:55:48.356Z,48.30
2018-05-14T01:58:16.815Z,48.30
2018-05-14T02:00:45.289Z,48.30
2018-05-14T02:03:12.988Z,48.30
2018-05-14T02:05:40.676Z,48.30
2018-05-14T02:08:08.374Z,48.30
2018-05-14T02:10:36.170Z,48.30
2018-05-14T02:13:04.628Z,48.40
2018-05-14T02:15:32.317Z,48.40
2018-05-14T02:18:00.766Z,48.30
2018-05-14T02:20:28.469Z,48.30
2018-05-14T02:22:56.181Z,48.30
2018-05-14T02:25:23.897Z,48.30
2018-05-14T02:27:51.712Z,48.30
2018-05-14T02:30:19.418Z,48.30
2018-05-14T02:32:47.900Z,48.20
2018-05-14T02:35:16.355Z,48.30
2018-05-14T02:37:44.045Z,48.20
2018-05-14T02:40:12.504Z,48.20
2018-05-14T02:42:40.203Z,48.20
2018-05-14T02:45:08.010Z,48.20
2018-05-14T02:47:35.722Z,48.20
2018-05-14T02:50:04.173Z,48.20
2018-05-14T02:52:31.971Z,48.20
2018-05-14T02:55:00.494Z,48.20
2018-05-14T02:57:28.190Z,48.20
2018-05-14T02:59:56.687Z,48.20
2018-05-14T03:02:25.190Z,48.20
2018-05-14T03:04:52.985Z,48.20
2018-05-14T03:07:21.408Z,48.20
2018-05-14T03:09:49.128Z,48.20
2018-05-14T03:12:16.815Z,48.20
2018-05-14T03:14:44.523Z,48.20
2018-05-14T03:17:12.998Z,48.20
2018-05-14T03:19:41.488Z,48.20
2018-05-14T03:22:09.958Z,48.20
2018-05-14T03:24:38.419Z,48.20
2018-05-14T03:27:06.102Z,48.20
2018-05-14T03:29:34.645Z,48.20
2018-05-14T03:32:02.514Z,48.20
2018-05-14T03:34:30.218Z,48.10
2018-05-14T03:36:58.680Z,48.20
2018-05-14T03:39:26.375Z,48.20
2018-05-14T03:41:54.825Z,48.10
2018-05-14T03:44:22.506Z,48.10
2018-05-14T03:46:50.975Z,48.10
2018-05-14T03:49:18.817Z,48.10
2018-05-14T03:51:46.517Z,48.00
2018-05-14T03:54:15.022Z,48.10
2018-05-14T03:56:42.706Z,48.00
2018-05-14T03:59:22.103Z,48.10
2018-05-14T04:01:58.385Z,48.00
2018-05-14T04:04:38.698Z,48.00
2018-05-14T04:07:06.388Z,48.00
2018-05-14T04:09:34.853Z,48.00
2018-05-14T04:12:02.576Z,48.00
2018-05-14T04:14:30.278Z,48.00
2018-05-14T04:16:57.968Z,48.00
2018-05-14T04:19:26.506Z,48.00
2018-05-14T04:21:54.199Z,48.00
2018-05-14T04:24:21.905Z,48.00
2018-05-14T04:26:49.596Z,48.00
2018-05-14T04:29:17.335Z,48.00
2018-05-14T04:31:45.037Z,48.00
2018-05-14T04:34:12.744Z,48.10
2018-05-14T04:36:40.437Z,48.00
2018-05-14T04:39:08.142Z,48.00
2018-05-14T04:41:35.836Z,48.00
2018-05-14T04:44:04.287Z,48.10
2018-05-14T04:46:31.990Z,48.10
2018-05-14T04:48:59.684Z,48.10
2018-05-14T04:51:27.375Z,48.20
2018-05-14T04:53:55.073Z,48.10
2018-05-14T04:56:23.550Z,48.20
2018-05-14T04:58:52.014Z,48.20
2018-05-14T05:01:19.736Z,48.20
2018-05-14T05:03:47.425Z,48.20
2018-05-14T05:06:15.111Z,48.20
2018-05-14T05:08:43.786Z,48.20
2018-05-14T05:11:11.470Z,48.20
2018-05-14T05:13:39.925Z,48.20
2018-05-14T05:16:07.617Z,48.20
2018-05-14T05:18:36.101Z,48.20
2018-05-14T05:21:04.593Z,48.20
2018-05-14T05:23:32.395Z,48.90
2018-05-14T05:26:00.099Z,48.20
2018-05-14T05:28:28.658Z,48.20
2018-05-14T05:30:56.301Z,48.20
2018-05-14T05:33:24.011Z,48.20
2018-05-14T05:35:52.470Z,48.20
2018-05-14T05:38:20.171Z,48.20
2018-05-14T05:40:48.736Z,48.80
2018-05-14T05:43:17.206Z,48.20
2018-05-14T05:45:44.905Z,48.20
2018-05-14T05:48:12.622Z,48.20
2018-05-14T05:50:40.318Z,48.10
2018-05-14T05:53:08.773Z,48.10
2018-05-14T05:55:36.475Z,48.00
2018-05-14T05:58:04.183Z,48.00
2018-05-14T06:00:31.989Z,48.00
2018-05-14T06:03:00.457Z,48.00
2018-05-14T06:05:28.950Z,48.00
2018-05-14T06:07:57.405Z,48.00
2018-05-14T06:10:25.115Z,48.00
2018-05-14T06:12:52.816Z,48.00
2018-05-14T06:15:20.501Z,48.00
2018-05-14T06:17:48.194Z,48.00
2018-05-14T06:20:16.649Z,47.90
2018-05-14T06:22:44.341Z,47.90
2018-05-14T06:25:12.813Z,47.90
2018-05-14T06:27:41.270Z,47.90
2018-05-14T06:30:08.953Z,47.90
2018-05-14T06:32:37.401Z,47.90
2018-05-14T06:35:05.102Z,47.90
2018-05-14T06:37:33.647Z,48.60
2018-05-14T06:40:01.343Z,47.80
2018-05-14T06:42:29.037Z,47.80
2018-05-14T06:44:56.839Z,47.90
2018-05-14T06:47:24.548Z,47.80
2018-05-14T06:49:53.068Z,47.90
2018-05-14T06:52:21.491Z,47.90
2018-05-14T06:54:49.191Z,47.90
2018-05-14T06:57:16.890Z,47.90
2018-05-14T06:59:44.584Z,48.00
2018-05-14T07:02:12.368Z,47.90
2018-05-14T07:04:40.847Z,48.00
2018-05-14T07:07:09.291Z,48.70
2018-05-14T07:09:36.983Z,48.00
2018-05-14T07:12:04.676Z,47.90
2018-05-14T07:14:32.518Z,47.90
2018-05-14T07:17:00.978Z,47.90
2018-05-14T07:19:28.676Z,47.90
2018-05-14T07:21:57.137Z,48.60
2018-05-14T07:24:25.623Z,48.20
2018-05-14T07:26:53.332Z,47.90
2018-05-14T07:29:21.053Z,48.00
2018-05-14T07:31:49.497Z,48.00
2018-05-14T07:34:17.209Z,48.00
2018-05-14T07:36:45.671Z,48.00
2018-05-14T07:39:13.364Z,48.00
2018-05-14T07:41:41.061Z,48.00
2018-05-14T07:44:08.744Z,47.90
2018-05-14T07:46:36.438Z,47.90
2018-05-14T07:49:04.907Z,48.00
2018-05-14T07:51:32.687Z,47.90
2018-05-14T07:54:01.159Z,47.90
2018-05-14T07:56:28.880Z,47.80
2018-05-14T07:58:56.581Z,47.80
2018-05-14T08:01:24.274Z,47.90
2018-05-14T08:03:52.766Z,47.90
2018-05-14T08:06:20.669Z,47.90
2018-05-14T08:08:48.364Z,47.90
2018-05-14T08:11:16.816Z,47.90
2018-05-14T08:13:44.516Z,47.90
2018-05-14T08:16:12.977Z,47.90
2018-05-14T08:18:40.672Z,47.90
2018-05-14T08:21:09.116Z,47.80
2018-05-14T08:23:36.811Z,47.80
2018-05-14T08:26:04.555Z,47.70
2018-05-14T08:28:32.259Z,47.70
2018-05-14T08:30:59.965Z,47.70
2018-05-14T08:33:27.670Z,47.70
2018-05-14T08:35:56.166Z,47.80
2018-05-14T08:38:23.863Z,47.80
2018-05-14T08:40:51.548Z,47.70
2018-05-14T08:43:19.309Z,47.70
2018-05-14T08:45:46.978Z,47.80
2018-05-14T08:48:14.690Z,47.70
2018-05-14T08:50:42.388Z,47.70
2018-05-14T08:53:10.081Z,47.70
2018-05-14T08:55:37.777Z,47.60
2018-05-14T08:58:05.493Z,47.60
2018-05-14T09:00:33.177Z,47.60
2018-05-14T09:03:00.864Z,47.60
2018-05-14T09:05:29.322Z,47.60
2018-05-14T09:07:57.010Z,47.60
2018-05-14T09:10:24.701Z,47.60
2018-05-14T09:12:52.404Z,47.60
2018-05-14T09:15:20.105Z,47.70
2018-05-14T09:17:47.807Z,47.60
2018-05-14T09:20:15.517Z,47.60
2018-05-14T09:22:43.977Z,47.60
2018-05-14T09:25:11.665Z,47.60
2018-05-14T09:27:40.118Z,47.60
2018-05-14T09:30:07.833Z,47.60
2018-05-14T09:32:35.534Z,47.60
2018-05-14T09:35:03.221Z,47.60
2018-05-14T09:37:31.578Z,47.60
2018-05-14T09:39:59.270Z,47.60
2018-05-14T09:42:27.071Z,47.60
2018-05-14T09:44:54.768Z,47.60
2018-05-14T09:47:22.471Z,47.60
2018-05-14T09:49:50.945Z,47.60
2018-05-14T09:52:19.421Z,47.60
2018-05-14T09:54:47.884Z,47.60
2018-05-14T09:57:15.645Z,47.60
2018-05-14T09:59:43.324Z,47.60
2018-05-14T10:02:11.811Z,47.60
2018-05-14T10:04:39.490Z,47.60
2018-05-14T10:07:07.944Z,47.60
2018-05-14T10:09:35.791Z,47.60
2018-05-14T10:12:03.494Z,47.60
2018-05-14T10:14:31.998Z,47.60
2018-05-14T10:16:59.689Z,47.60
2018-05-14T10:19:27.379Z,47.60
2018-05-14T10:21:55.076Z,47.60
2018-05-14T10:24:23.555Z,47.60
2018-05-14T10:26:52.023Z,47.60
2018-05-14T10:29:20.477Z,47.60
2018-05-14T10:31:48.168Z,47.60
2018-05-14T10:34:15.885Z,47.60
2018-05-14T10:36:43.584Z,47.60
2018-05-14T10:39:11.325Z,47.60
2018-05-14T10:41:39.021Z,47.60
2018-05-14T10:44:06.787Z,47.60
2018-05-14T10:46:34.479Z,47.60
2018-05-14T10:49:02.197Z,47.60
2018-05-14T10:51:29.902Z,47.60
2018-05-14T10:53:58.388Z,47.60
2018-05-14T10:56:26.075Z,47.60
2018-05-14T10:58:53.761Z,47.60
2018-05-14T11:01:21.462Z,47.60
2018-05-14T11:03:49.917Z,47.60
2018-05-14T11:06:17.651Z,47.60
2018-05-14T11:08:45.353Z,47.60
2018-05-14T11:11:13.037Z,47.60
2018-05-14T11:13:41.541Z,47.60
2018-05-14T11:16:09.240Z,47.60
2018-05-14T11:18:36.916Z,47.60
2018-05-14T11:21:04.612Z,47.60
2018-05-14T11:23:33.456Z,47.70
2018-05-14T11:26:01.161Z,47.70
2018-05-14T11:28:29.654Z,47.70
2018-05-14T11:30:58.128Z,47.70
2018-05-14T11:33:26.590Z,47.70
2018-05-14T11:35:54.290Z,47.60
2018-05-14T11:38:21.994Z,47.70
2018-05-14T11:40:49.682Z,47.70
2018-05-14T11:43:17.385Z,47.60
2018-05-14T11:45:45.093Z,47.60
2018-05-14T11:48:12.776Z,47.60
2018-05-14T11:50:40.552Z,47.60
2018-05-14T11:53:08.232Z,47.60
2018-05-14T11:55:36.696Z,47.60
2018-05-14T11:58:05.155Z,47.70
2018-05-14T12:00:32.850Z,47.60
2018-05-14T12:03:01.373Z,47.60
2018-05-14T12:05:29.066Z,47.60
2018-05-14T12:07:56.767Z,48.30
2018-05-14T12:10:25.231Z,47.60
2018-05-14T12:12:53.750Z,47.60
2018-05-14T12:15:21.437Z,47.60
2018-05-14T12:17:49.116Z,47.60
2018-05-14T12:20:16.804Z,47.60
2018-05-14T12:22:44.496Z,47.70
2018-05-14T12:25:12.192Z,47.60
2018-05-14T12:27:39.885Z,47.60
2018-05-14T12:30:07.560Z,47.60
2018-05-14T12:32:36.017Z,47.60
2018-05-14T12:35:03.727Z,47.60
2018-05-14T12:37:31.489Z,47.60
2018-05-14T12:39:59.356Z,47.60
2018-05-14T12:42:27.828Z,47.60
2018-05-14T12:44:56.489Z,47.60
2018-05-14T12:47:24.181Z,47.60
2018-05-14T12:49:52.679Z,47.60
2018-05-14T12:52:20.363Z,47.60
2018-05-14T12:54:48.053Z,47.60
2018-05-14T12:57:15.789Z,47.60
2018-05-14T12:59:43.487Z,47.60
2018-05-14T13:02:11.199Z,47.60
2018-05-14T13:04:38.942Z,47.60
2018-05-14T13:07:07.492Z,47.60
2018-05-14T13:09:35.183Z,47.60
2018-05-14T13:12:03.647Z,47.60
2018-05-14T13:14:31.349Z,47.60
2018-05-14T13:16:59.104Z,47.60
2018-05-14T13:19:27.560Z,47.70
2018-05-14T13:21:55.255Z,47.70
2018-05-14T13:24:23.726Z,47.70
2018-05-14T13:26:52.208Z,47.70
2018-05-14T13:29:20.684Z,47.60
2018-05-14T13:31:49.173Z,47.60
2018-05-14T13:34:17.655Z,47.60
2018-05-14T13:36:46.108Z,47.70
2018-05-14T13:39:13.794Z,48.40
2018-05-14T13:41:41.491Z,47.70
2018-05-14T13:44:09.194Z,47.60
2018-05-14T13:46:36.887Z,47.60
2018-05-14T13:49:05.346Z,47.60
2018-05-14T13:51:33.305Z,47.60
2018-05-14T13:54:01.003Z,47.60
2018-05-14T13:56:29.461Z,47.70
2018-05-14T13:58:57.159Z,47.70
2018-05-14T14:01:24.891Z,47.70
2018-05-14T14:03:53.381Z,47.70
2018-05-14T14:06:21.078Z,47.70
2018-05-14T14:08:49.543Z,47.70
2018-05-14T14:11:18.013Z,47.70
2018-05-14T14:13:46.513Z,47.70
2018-05-14T14:16:14.968Z,47.60
2018-05-14T14:18:42.891Z,47.70
2018-05-14T14:21:10.585Z,47.60
2018-05-14T14:23:38.358Z,47.70
2018-05-14T14:26:06.025Z,47.60
2018-05-14T14:28:33.712Z,47.60
2018-05-14T14:31:02.174Z,47.60
2018-05-14T14:33:29.875Z,47.60
2018-05-14T14:35:57.647Z,47.60
2018-05-14T14:38:26.080Z,47.60
2018-05-14T14:40:53.791Z,47.60
2018-05-14T14:43:21.490Z,47.60
2018-05-14T14:45:49.193Z,47.60
2018-05-14T14:48:17.659Z,47.60
2018-05-14T14:50:45.349Z,47.60
2018-05-14T14:53:13.816Z,47.60
2018-05-14T14:55:41.515Z,47.60
2018-05-14T14:58:09.242Z,47.60
2018-05-14T15:00:36.946Z,47.60
2018-05-14T15:03:04.657Z,47.60
2018-05-14T15:05:32.706Z,47.60
2018-05-14T15:08:00.556Z,47.60
2018-05-14T15:10:28.253Z,47.60
2018-05-14T15:12:55.953Z,47.60
2018-05-14T15:15:24.421Z,47.60
2018-05-14T15:17:52.904Z,47.60
2018-05-14T15:20:21.363Z,47.60
2018-05-14T15:22:49.099Z,47.60
2018-05-14T15:25:16.818Z,47.60
2018-05-14T15:27:45.305Z,47.60
2018-05-14T15:30:13.026Z,47.60
2018-05-14T15:32:40.738Z,47.60
2018-05-14T15:35:09.196Z,47.60
2018-05-14T15:37:37.681Z,47.60
2018-05-14T15:40:05.381Z,47.60
2018-05-14T15:42:33.111Z,47.60
2018-05-14T15:45:00.814Z,47.60
2018-05-14T15:47:28.510Z,47.70
2018-05-14T15:49:56.254Z,47.60
2018-05-14T15:52:23.924Z,47.70
2018-05-14T15:54:51.609Z,47.60
2018-05-14T15:57:19.339Z,47.60
2018-05-14T15:59:47.037Z,47.60
2018-05-14T16:02:14.741Z,47.60
2018-05-14T16:04:43.221Z,47.60
2018-05-14T16:07:11.673Z,48.30
2018-05-14T16:09:39.374Z,47.60
2018-05-14T16:12:07.080Z,47.60
2018-05-14T16:14:34.866Z,47.70
2018-05-14T16:17:02.498Z,47.60
2018-05-14T16:19:30.209Z,47.60
2018-05-14T16:21:58.687Z,47.60
2018-05-14T16:24:26.418Z,47.60
2018-05-14T16:26:54.119Z,47.60
2018-05-14T16:29:21.821Z,47.60
2018-05-14T16:31:49.513Z,47.60
2018-05-14T16:34:17.232Z,47.60
2018-05-14T16:36:44.949Z,47.60
2018-05-14T16:39:12.640Z,47.60
2018-05-14T16:41:40.383Z,47.60
2018-05-14T16:44:08.086Z,47.60
2018-05-14T16:46:36.567Z,47.60
2018-05-14T16:49:05.045Z,47.60
2018-05-14T16:51:33.917Z,47.60
2018-05-14T16:54:01.611Z,47.60
2018-05-14T16:56:29.317Z,47.60
2018-05-14T16:58:57.031Z,47.60
2018-05-14T17:01:24.742Z,47.60
2018-05-14T17:03:52.432Z,47.60
2018-05-14T17:06:20.142Z,47.60
2018-05-14T17:08:47.868Z,47.60
2018-05-14T17:11:15.569Z,47.60
2018-05-14T17:13:43.294Z,47.60
2018-05-14T17:16:10.976Z,47.60
2018-05-14T17:18:39.449Z,47.60
2018-05-14T17:21:07.154Z,47.60
2018-05-14T17:23:35.640Z,47.60
2018-05-14T17:26:03.334Z,47.60
2018-05-14T17:28:31.035Z,47.60
2018-05-14T17:30:59.649Z,47.60
2018-05-14T17:33:27.341Z,47.60
2018-05-14T17:35:55.038Z,47.60
2018-05-14T17:38:23.504Z,48.30
2018-05-14T17:40:51.225Z,47.60
2018-05-14T17:43:18.929Z,47.60
2018-05-14T17:45:46.630Z,47.60
2018-05-14T17:48:14.331Z,47.60
2018-05-14T17:50:42.035Z,47.60
2018-05-14T17:53:10.492Z,47.60
2018-05-14T17:55:38.285Z,47.60
2018-05-14T17:58:06.728Z,47.60
2018-05-14T18:00:34.421Z,47.60
2018-05-14T18:03:02.124Z,47.60
2018-05-14T18:05:29.842Z,47.60
2018-05-14T18:07:59.164Z,47.60
2018-05-14T18:10:27.664Z,47.60
2018-05-14T18:12:55.364Z,47.60
2018-05-14T18:15:23.048Z,47.60
2018-05-14T18:17:50.876Z,47.60
2018-05-14T18:20:24.092Z,47.60
2018-05-14T18:22:51.799Z,47.60
2018-05-14T18:25:25.937Z,47.60
2018-05-14T18:27:59.360Z,47.60
2018-05-14T18:30:28.997Z,47.60
2018-05-14T18:33:02.647Z,47.60
2018-05-14T18:35:35.945Z,47.60
2018-05-14T18:38:03.663Z,47.60
2018-05-14T18:40:31.354Z,47.60
2018-05-14T18:42:59.820Z,47.60
2018-05-14T18:45:28.328Z,47.60
2018-05-14T18:47:56.068Z,47.60
2018-05-14T18:50:24.523Z,47.60
2018-05-14T18:52:52.231Z,47.60
2018-05-14T18:55:19.970Z,47.60
2018-05-14T18:57:48.460Z,47.60
2018-05-14T19:02:49.946Z,47.60
2018-05-14T19:05:18.575Z,47.60
2018-05-14T19:07:46.274Z,47.60
2018-05-14T19:10:20.407Z,47.80
2018-05-14T19:12:48.886Z,47.70
2018-05-14T19:15:23.016Z,47.70
2018-05-14T19:17:56.485Z,47.70
2018-05-14T19:20:24.990Z,47.70
2018-05-14T19:22:58.258Z,47.70
2018-05-14T19:25:26.746Z,47.70
2018-05-14T19:28:00.933Z,47.60
2018-05-14T19:30:28.794Z,47.70
2018-05-14T19:32:56.485Z,47.70
2018-05-14T19:35:29.894Z,47.70
2018-05-14T19:37:58.379Z,47.70
2018-05-14T19:40:32.397Z,47.70
2018-05-14T19:43:00.914Z,47.70
2018-05-14T19:45:28.654Z,47.70
2018-05-14T19:47:56.463Z,47.70
2018-05-14T19:50:24.190Z,47.70
2018-05-14T19:52:51.889Z,47.90
2018-05-14T19:55:19.616Z,47.30
2018-05-14T19:57:47.336Z,47.10
2018-05-14T20:00:15.045Z,47.70
2018-05-14T20:02:43.396Z,46.70
2018-05-14T20:05:12.149Z,46.70
2018-05-14T20:07:40.016Z,46.70
2018-05-14T20:10:07.717Z,46.70
2018-05-14T20:12:36.192Z,47.20
2018-05-14T20:15:04.690Z,45.60
2018-05-14T20:17:33.227Z,45.50
2018-05-14T20:20:01.079Z,45.50
2018-05-14T20:22:28.792Z,46.50
2018-05-14T20:24:56.504Z,46.70
2018-05-14T20:27:24.213Z,46.20
2018-05-14T20:29:51.913Z,46.90
2018-05-14T20:32:19.618Z,46.90
2018-05-14T20:34:47.363Z,46.70
2018-05-14T20:37:15.065Z,46.90
2018-05-14T20:39:43.729Z,47.20
2018-05-14T20:42:11.437Z,47.20
2018-05-14T20:44:40.087Z,47.50
2018-05-14T20:47:07.797Z,47.40
2018-05-14T20:49:35.809Z,47.80
2018-05-14T21:56:58.315Z,39.60
2018-05-14T21:59:26.022Z,40.90
2018-05-14T22:01:54.508Z,45.90
2018-05-14T22:04:22.253Z,45.60
2018-05-14T22:06:55.922Z,46.40
2018-05-14T22:09:23.634Z,43.90
2018-05-14T22:14:20.400Z,43.80
2018-05-14T22:16:48.894Z,36.00
2018-05-14T22:19:16.595Z,36.10
2018-05-14T22:21:44.300Z,39.00
2018-05-14T22:24:12.789Z,42.90
2018-05-14T22:31:57.462Z,44.00
2018-05-14T22:34:25.176Z,45.50
2018-05-14T22:36:52.901Z,46.30
2018-05-14T22:39:20.618Z,46.50
2018-05-14T22:41:48.372Z,47.20
2018-05-14T22:44:16.100Z,47.50
2018-05-14T22:46:44.582Z,48.10
2018-05-14T22:49:13.056Z,48.10
2018-05-14T22:51:40.781Z,48.10
2018-05-14T22:54:08.532Z,48.60
2018-05-14T22:56:36.252Z,48.40
2018-05-14T22:59:03.960Z,48.50
2018-05-14T23:01:31.694Z,48.60
2018-05-14T23:04:00.172Z,48.80
2018-05-14T23:06:28.643Z,48.80
2018-05-14T23:08:56.379Z,48.80
2018-05-14T23:11:24.101Z,48.80
2018-05-14T23:13:52.587Z,48.90
2018-05-14T23:16:20.350Z,48.90
2018-05-14T23:18:48.082Z,48.90
2018-05-14T23:21:15.789Z,49.00
2018-05-14T23:23:43.496Z,49.00
2018-05-14T23:26:11.202Z,49.10
2018-05-14T23:28:38.942Z,49.10
2018-05-14T23:31:18.252Z,49.10
2018-05-14T23:33:46.730Z,49.20
2018-05-14T23:36:14.423Z,49.20
2018-05-14T23:38:42.141Z,49.10
2018-05-14T23:41:09.855Z,49.20
2018-05-14T23:43:37.585Z,49.20
2018-05-14T23:46:05.283Z,49.30
2018-05-14T23:48:32.995Z,49.30
2018-05-14T23:51:00.702Z,49.30
2018-05-14T23:53:28.495Z,49.40
2018-05-14T23:55:56.287Z,49.40
2018-05-14T23:58:23.996Z,49.40
